sensor_id;sensor_type;location;lat;lon;timestamp;pressure;altitude;pressure_sealevel;temperature;humidity
64683;BME280;51107;47.652;19.016;2024-01-30T00:02:19;102243.44;;;-1.86;100.00
64683;BME280;51107;47.652;19.016;2024-01-30T00:04:48;102230.63;;;-1.85;100.00
64683;BME280;51107;47.652;19.016;2024-01-30T00:07:16;102246.84;;;-1.84;100.00
64683;BME280;51107;47.652;19.016;2024-01-30T00:09:46;102242.47;;;-1.68;100.00
64683;BME280;51107;47.652;19.016;2024-01-30T00:12:15;102246.87;;;-1.91;100.00
64683;BME280;51107;47.652;19.016;2024-01-30T00:14:43;102240.75;;;-1.65;100.00
64683;BME280;51107;47.652;19.016;2024-01-30T00:17:12;102251.28;;;-2.17;100.00
64683;BME280;51107;47.652;19.016;2024-01-30T00:19:40;102247.88;;;-2.21;100.00
64683;BME280;51107;47.652;19.016;2024-01-30T00:22:08;102254.59;;;-2.01;100.00
64683;BME280;51107;47.652;19.016;2024-01-30T00:24:36;102238.53;;;-2.24;100.00
64683;BME280;51107;47.652;19.016;2024-01-30T00:27:05;102253.87;;;-2.34;100.00
64683;BME280;51107;47.652;19.016;2024-01-30T00:29:33;102249.53;;;-2.14;100.00
64683;BME280;51107;47.652;19.016;2024-01-30T00:32:01;102249.47;;;-1.95;100.00
64683;BME280;51107;47.652;19.016;2024-01-30T00:34:30;102247.06;;;-2.23;100.00
64683;BME280;51107;47.652;19.016;2024-01-30T00:36:58;102248.69;;;-2.14;100.00
64683;BME280;51107;47.652;19.016;2024-01-30T00:39:26;102254.63;;;-2.08;100.00
64683;BME280;51107;47.652;19.016;2024-01-30T00:41:54;102256.34;;;-2.10;100.00
64683;BME280;51107;47.652;19.016;2024-01-30T00:44:22;102263.16;;;-2.16;100.00
64683;BME280;51107;47.652;19.016;2024-01-30T00:46:51;102246.13;;;-2.11;100.00
64683;BME280;51107;47.652;19.016;2024-01-30T00:49:20;102261.34;;;-1.94;100.00
64683;BME280;51107;47.652;19.016;2024-01-30T00:51:48;102255.41;;;-1.95;100.00
64683;BME280;51107;47.652;19.016;2024-01-30T00:54:16;102254.56;;;-1.95;100.00
64683;BME280;51107;47.652;19.016;2024-01-30T00:56:44;102249.38;;;-1.86;100.00
64683;BME280;51107;47.652;19.016;2024-01-30T00:59:12;102251.94;;;-1.86;100.00
64683;BME280;51107;47.652;19.016;2024-01-30T01:01:40;102246.91;;;-2.01;100.00
64683;BME280;51107;47.652;19.016;2024-01-30T01:04:09;102243.66;;;-2.25;100.00
64683;BME280;51107;47.652;19.016;2024-01-30T01:06:37;102241.97;;;-2.29;100.00
64683;BME280;51107;47.652;19.016;2024-01-30T01:09:05;102236.78;;;-2.11;100.00
64683;BME280;51107;47.652;19.016;2024-01-30T01:11:33;102239.34;;;-2.15;100.00
64683;BME280;51107;47.652;19.016;2024-01-30T01:14:02;102232.53;;;-2.12;100.00
64683;BME280;51107;47.652;19.016;2024-01-30T01:16:30;102235.88;;;-2.03;100.00
64683;BME280;51107;47.652;19.016;2024-01-30T01:18:58;102227.34;;;-2.06;100.00
64683;BME280;51107;47.652;19.016;2024-01-30T01:21:28;102236.69;;;-2.01;100.00
64683;BME280;51107;47.652;19.016;2024-01-30T01:23:56;102233.25;;;-1.96;100.00
64683;BME280;51107;47.652;19.016;2024-01-30T01:26:24;102232.38;;;-1.90;100.00
64683;BME280;51107;47.652;19.016;2024-01-30T01:28:52;102230.72;;;-1.93;100.00
64683;BME280;51107;47.652;19.016;2024-01-30T01:31:20;102237.59;;;-2.02;100.00
64683;BME280;51107;47.652;19.016;2024-01-30T01:33:53;102228.19;;;-2.00;100.00
64683;BME280;51107;47.652;19.016;2024-01-30T01:36:21;102224.69;;;-1.90;100.00
64683;BME280;51107;47.652;19.016;2024-01-30T01:38:49;102246.09;;;-2.03;100.00
64683;BME280;51107;47.652;19.016;2024-01-30T01:41:17;102224.84;;;-2.09;100.00
64683;BME280;51107;47.652;19.016;2024-01-30T01:43:45;102223.94;;;-2.01;100.00
64683;BME280;51107;47.652;19.016;2024-01-30T01:46:13;102230.78;;;-2.05;100.00
64683;BME280;51107;47.652;19.016;2024-01-30T01:48:42;102231.62;;;-2.06;100.00
64683;BME280;51107;47.652;19.016;2024-01-30T01:51:12;102226.59;;;-2.18;100.00
64683;BME280;51107;47.652;19.016;2024-01-30T01:53:40;102235.03;;;-2.07;100.00
64683;BME280;51107;47.652;19.016;2024-01-30T01:56:09;102234.22;;;-2.09;100.00
64683;BME280;51107;47.652;19.016;2024-01-30T01:58:37;102235.09;;;-2.18;100.00
64683;BME280;51107;47.652;19.016;2024-01-30T02:01:07;102234.22;;;-2.15;100.00
64683;BME280;51107;47.652;19.016;2024-01-30T02:03:36;102232.53;;;-2.16;100.00
64683;BME280;51107;47.652;19.016;2024-01-30T02:06:04;102223.19;;;-2.19;100.00
64683;BME280;51107;47.652;19.016;2024-01-30T02:08:33;102232.63;;;-2.33;100.00
64683;BME280;51107;47.652;19.016;2024-01-30T02:11:01;102233.47;;;-2.30;100.00
64683;BME280;51107;47.652;19.016;2024-01-30T02:13:29;102221.53;;;-2.29;100.00
64683;BME280;51107;47.652;19.016;2024-01-30T02:15:57;102229.16;;;-2.26;100.00
64683;BME280;51107;47.652;19.016;2024-01-30T02:18:25;102224.09;;;-2.32;100.00
64683;BME280;51107;47.652;19.016;2024-01-30T02:20:56;102222.44;;;-2.36;100.00
64683;BME280;51107;47.652;19.016;2024-01-30T02:23:25;102217.28;;;-2.32;100.00
64683;BME280;51107;47.652;19.016;2024-01-30T02:25:53;102212.19;;;-2.27;100.00
64683;BME280;51107;47.652;19.016;2024-01-30T02:28:21;102219.84;;;-2.32;100.00
64683;BME280;51107;47.652;19.016;2024-01-30T02:30:50;102220.72;;;-2.36;100.00
64683;BME280;51107;47.652;19.016;2024-01-30T02:33:18;102220.69;;;-2.34;100.00
64683;BME280;51107;47.652;19.016;2024-01-30T02:35:46;102213.97;;;-2.48;100.00
64683;BME280;51107;47.652;19.016;2024-01-30T02:38:18;102225.81;;;-2.36;100.00
64683;BME280;51107;47.652;19.016;2024-01-30T02:40:46;102223.31;;;-2.42;100.00
64683;BME280;51107;47.652;19.016;2024-01-30T02:43:14;102210.56;;;-2.44;100.00
64683;BME280;51107;47.652;19.016;2024-01-30T02:45:43;102221.56;;;-2.37;100.00
64683;BME280;51107;47.652;19.016;2024-01-30T02:48:11;102217.34;;;-2.38;100.00
64683;BME280;51107;47.652;19.016;2024-01-30T02:50:39;102225.84;;;-2.47;100.00
64683;BME280;51107;47.652;19.016;2024-01-30T02:53:08;102215.66;;;-2.44;100.00
64683;BME280;51107;47.652;19.016;2024-01-30T02:55:36;102217.34;;;-2.43;100.00
64683;BME280;51107;47.652;19.016;2024-01-30T02:58:04;102213.91;;;-2.39;100.00
64683;BME280;51107;47.652;19.016;2024-01-30T03:00:32;102217.31;;;-2.33;100.00
64683;BME280;51107;47.652;19.016;2024-01-30T03:03:00;102219.03;;;-2.39;100.00
64683;BME280;51107;47.652;19.016;2024-01-30T03:05:29;102213.06;;;-2.39;100.00
64683;BME280;51107;47.652;19.016;2024-01-30T03:07:58;102228.34;;;-2.34;100.00
64683;BME280;51107;47.652;19.016;2024-01-30T03:10:26;102229.25;;;-2.42;100.00
64683;BME280;51107;47.652;19.016;2024-01-30T03:12:54;102228.41;;;-2.42;100.00
64683;BME280;51107;47.652;19.016;2024-01-30T03:15:22;102226.75;;;-2.48;100.00
64683;BME280;51107;47.652;19.016;2024-01-30T03:17:51;102223.31;;;-2.50;100.00
64683;BME280;51107;47.652;19.016;2024-01-30T03:20:19;102226.75;;;-2.48;100.00
64683;BME280;51107;47.652;19.016;2024-01-30T03:22:47;102231.78;;;-2.40;100.00
64683;BME280;51107;47.652;19.016;2024-01-30T03:25:15;102233.50;;;-2.37;100.00
64683;BME280;51107;47.652;19.016;2024-01-30T03:27:43;102225.03;;;-2.49;100.00
64683;BME280;51107;47.652;19.016;2024-01-30T03:30:12;102236.94;;;-2.51;100.00
64683;BME280;51107;47.652;19.016;2024-01-30T03:32:40;102225.88;;;-2.50;100.00
64683;BME280;51107;47.652;19.016;2024-01-30T03:35:08;102227.63;;;-2.61;100.00
64683;BME280;51107;47.652;19.016;2024-01-30T03:37:37;102232.81;;;-2.84;100.00
64683;BME280;51107;47.652;19.016;2024-01-30T03:40:06;102232.78;;;-2.80;100.00
64683;BME280;51107;47.652;19.016;2024-01-30T03:42:34;102217.47;;;-2.75;100.00
64683;BME280;51107;47.652;19.016;2024-01-30T03:45:03;102214.91;;;-2.66;100.00
64683;BME280;51107;47.652;19.016;2024-01-30T03:47:31;102215.75;;;-2.75;100.00
64683;BME280;51107;47.652;19.016;2024-01-30T03:49:59;102213.22;;;-2.76;100.00
64683;BME280;51107;47.652;19.016;2024-01-30T03:52:28;102214.91;;;-2.72;100.00
64683;BME280;51107;47.652;19.016;2024-01-30T03:54:56;102213.19;;;-2.71;100.00
64683;BME280;51107;47.652;19.016;2024-01-30T03:57:25;102209.78;;;-2.63;100.00
64683;BME280;51107;47.652;19.016;2024-01-30T03:59:53;102209.84;;;-2.78;100.00
64683;BME280;51107;47.652;19.016;2024-01-30T04:02:21;102210.69;;;-2.78;100.00
64683;BME280;51107;47.652;19.016;2024-01-30T04:04:50;102205.56;;;-2.68;100.00
64683;BME280;51107;47.652;19.016;2024-01-30T04:07:18;102206.37;;;-2.68;100.00
64683;BME280;51107;47.652;19.016;2024-01-30T04:09:51;102199.59;;;-2.74;100.00
64683;BME280;51107;47.652;19.016;2024-01-30T04:12:19;102205.56;;;-2.78;100.00
64683;BME280;51107;47.652;19.016;2024-01-30T04:14:47;102205.59;;;-2.87;100.00
64683;BME280;51107;47.652;19.016;2024-01-30T04:17:15;102210.75;;;-3.02;100.00
64683;BME280;51107;47.652;19.016;2024-01-30T04:19:43;102204.78;;;-3.06;100.00
64683;BME280;51107;47.652;19.016;2024-01-30T04:22:12;102211.56;;;-3.02;100.00
64683;BME280;51107;47.652;19.016;2024-01-30T04:24:40;102210.72;;;-2.98;100.00
64683;BME280;51107;47.652;19.016;2024-01-30T04:27:08;102204.72;;;-2.84;100.00
64683;BME280;51107;47.652;19.016;2024-01-30T04:29:36;102216.69;;;-3.14;100.00
64683;BME280;51107;47.652;19.016;2024-01-30T04:32:04;102197.94;;;-2.85;100.00
64683;BME280;51107;47.652;19.016;2024-01-30T04:34:32;102203.03;;;-2.82;100.00
64683;BME280;51107;47.652;19.016;2024-01-30T04:37:01;102209.00;;;-2.94;100.00
64683;BME280;51107;47.652;19.016;2024-01-30T04:39:30;102217.53;;;-2.91;100.00
64683;BME280;51107;47.652;19.016;2024-01-30T04:42:00;102213.28;;;-3.01;100.00
64683;BME280;51107;47.652;19.016;2024-01-30T04:44:28;102206.41;;;-2.74;100.00
64683;BME280;51107;47.652;19.016;2024-01-30T04:46:56;102221.00;;;-3.58;100.00
64683;BME280;51107;47.652;19.016;2024-01-30T04:49:27;102213.34;;;-3.58;100.00
64683;BME280;51107;47.652;19.016;2024-01-30T04:51:56;102203.03;;;-2.84;100.00
64683;BME280;51107;47.652;19.016;2024-01-30T04:54:24;102220.09;;;-3.89;100.00
64683;BME280;51107;47.652;19.016;2024-01-30T04:56:53;102220.13;;;-3.38;100.00
64683;BME280;51107;47.652;19.016;2024-01-30T04:59:21;102215.88;;;-3.75;100.00
64683;BME280;51107;47.652;19.016;2024-01-30T05:01:49;102219.28;;;-3.62;100.00
64683;BME280;51107;47.652;19.016;2024-01-30T05:04:18;102215.88;;;-3.60;100.00
64683;BME280;51107;47.652;19.016;2024-01-30T05:06:46;102223.53;;;-3.39;100.00
64683;BME280;51107;47.652;19.016;2024-01-30T05:09:14;102224.38;;;-3.68;100.00
64683;BME280;51107;47.652;19.016;2024-01-30T05:11:43;102225.22;;;-3.49;100.00
64683;BME280;51107;47.652;19.016;2024-01-30T05:14:11;102236.28;;;-3.56;100.00
64683;BME280;51107;47.652;19.016;2024-01-30T05:16:40;102237.13;;;-3.48;100.00
64683;BME280;51107;47.652;19.016;2024-01-30T05:19:08;102239.66;;;-3.41;100.00
64683;BME280;51107;47.652;19.016;2024-01-30T05:21:37;102229.47;;;-3.44;100.00
64683;BME280;51107;47.652;19.016;2024-01-30T05:24:06;102243.06;;;-3.31;100.00
64683;BME280;51107;47.652;19.016;2024-01-30T05:26:36;102237.97;;;-3.52;100.00
64683;BME280;51107;47.652;19.016;2024-01-30T05:29:05;102246.47;;;-3.46;100.00
64683;BME280;51107;47.652;19.016;2024-01-30T05:31:34;102244.78;;;-3.37;100.00
64683;BME280;51107;47.652;19.016;2024-01-30T05:34:03;102243.06;;;-3.35;100.00
64683;BME280;51107;47.652;19.016;2024-01-30T05:36:31;102249.03;;;-3.43;100.00
64683;BME280;51107;47.652;19.016;2024-01-30T05:38:59;102245.59;;;-3.31;100.00
64683;BME280;51107;47.652;19.016;2024-01-30T05:41:27;102248.16;;;-3.20;100.00
64683;BME280;51107;47.652;19.016;2024-01-30T05:43:55;102256.66;;;-3.15;100.00
64683;BME280;51107;47.652;19.016;2024-01-30T05:46:24;102264.28;;;-3.22;100.00
64683;BME280;51107;47.652;19.016;2024-01-30T05:48:52;102253.28;;;-3.26;100.00
64683;BME280;51107;47.652;19.016;2024-01-30T05:51:21;102256.69;;;-3.33;100.00
64683;BME280;51107;47.652;19.016;2024-01-30T05:53:50;102251.56;;;-3.16;100.00
64683;BME280;51107;47.652;19.016;2024-01-30T05:56:19;102261.75;;;-3.26;100.00
64683;BME280;51107;47.652;19.016;2024-01-30T05:58:49;102256.66;;;-3.27;100.00
64683;BME280;51107;47.652;19.016;2024-01-30T06:01:18;102254.09;;;-3.10;100.00
64683;BME280;51107;47.652;19.016;2024-01-30T06:03:46;102254.94;;;-3.13;100.00
64683;BME280;51107;47.652;19.016;2024-01-30T06:06:14;102260.91;;;-3.21;100.00
64683;BME280;51107;47.652;19.016;2024-01-30T06:08:42;102257.50;;;-3.16;100.00
64683;BME280;51107;47.652;19.016;2024-01-30T06:11:11;102253.25;;;-3.14;100.00
64683;BME280;51107;47.652;19.016;2024-01-30T06:13:40;102260.91;;;-3.09;100.00
64683;BME280;51107;47.652;19.016;2024-01-30T06:16:11;102260.06;;;-3.19;100.00
64683;BME280;51107;47.652;19.016;2024-01-30T06:18:40;102264.31;;;-3.27;100.00
64683;BME280;51107;47.652;19.016;2024-01-30T06:21:08;102257.50;;;-3.30;100.00
64683;BME280;51107;47.652;19.016;2024-01-30T06:23:40;102254.13;;;-3.32;100.00
64683;BME280;51107;47.652;19.016;2024-01-30T06:26:08;102269.41;;;-3.29;100.00
64683;BME280;51107;47.652;19.016;2024-01-30T06:28:36;102265.16;;;-3.23;100.00
64683;BME280;51107;47.652;19.016;2024-01-30T06:31:05;102265.16;;;-3.27;100.00
64683;BME280;51107;47.652;19.016;2024-01-30T06:33:33;102271.94;;;-3.24;100.00
64683;BME280;51107;47.652;19.016;2024-01-30T06:36:01;102268.56;;;-3.28;100.00
64683;BME280;51107;47.652;19.016;2024-01-30T06:38:30;102254.97;;;-3.19;100.00
64683;BME280;51107;47.652;19.016;2024-01-30T06:40:58;102257.47;;;-3.02;100.00
64683;BME280;51107;47.652;19.016;2024-01-30T06:43:26;102263.41;;;-2.95;100.00
64683;BME280;51107;47.652;19.016;2024-01-30T06:45:55;102269.41;;;-3.05;100.00
64683;BME280;51107;47.652;19.016;2024-01-30T06:48:23;102269.41;;;-3.02;100.00
64683;BME280;51107;47.652;19.016;2024-01-30T06:50:53;102270.22;;;-3.03;100.00
64683;BME280;51107;47.652;19.016;2024-01-30T06:53:22;102276.19;;;-3.17;100.00
64683;BME280;51107;47.652;19.016;2024-01-30T06:55:51;102277.87;;;-2.74;100.00
64683;BME280;51107;47.652;19.016;2024-01-30T06:58:20;102269.28;;;-2.58;100.00
64683;BME280;51107;47.652;19.016;2024-01-30T07:00:48;102259.81;;;-2.28;100.00
64683;BME280;51107;47.652;19.016;2024-01-30T07:03:17;102261.47;;;-2.16;100.00
64683;BME280;51107;47.652;19.016;2024-01-30T07:05:45;102258.09;;;-2.15;100.00
64683;BME280;51107;47.652;19.016;2024-01-30T07:08:13;102268.25;;;-2.09;100.00
64683;BME280;51107;47.652;19.016;2024-01-30T07:10:45;102268.28;;;-2.12;100.00
64683;BME280;51107;47.652;19.016;2024-01-30T07:13:13;102263.19;;;-2.19;100.00
64683;BME280;51107;47.652;19.016;2024-01-30T07:15:44;102275.94;;;-2.10;100.00
64683;BME280;51107;47.652;19.016;2024-01-30T07:18:12;102270.81;;;-2.12;100.00
64683;BME280;51107;47.652;19.016;2024-01-30T07:20:42;102269.94;;;-2.05;100.00
64683;BME280;51107;47.652;19.016;2024-01-30T07:23:14;102269.09;;;-2.08;100.00
64683;BME280;51107;47.652;19.016;2024-01-30T07:25:44;102281.78;;;-1.91;100.00
64683;BME280;51107;47.652;19.016;2024-01-30T07:28:15;102272.41;;;-1.89;100.00
64683;BME280;51107;47.652;19.016;2024-01-30T07:30:45;102278.25;;;-1.72;100.00
64683;BME280;51107;47.652;19.016;2024-01-30T07:33:14;102273.13;;;-1.64;100.00
64683;BME280;51107;47.652;19.016;2024-01-30T07:35:42;102266.12;;;-1.45;100.00
64683;BME280;51107;47.652;19.016;2024-01-30T07:38:10;102260.94;;;-1.34;100.00
64683;BME280;51107;47.652;19.016;2024-01-30T07:40:38;102266.09;;;-1.39;100.00
64683;BME280;51107;47.652;19.016;2024-01-30T07:43:06;102266.72;;;-1.13;100.00
64683;BME280;51107;47.652;19.016;2024-01-30T07:45:35;102258.94;;;-0.99;100.00
64683;BME280;51107;47.652;19.016;2024-01-30T07:48:05;102259.66;;;-0.85;100.00
64683;BME280;51107;47.652;19.016;2024-01-30T07:50:33;102269.66;;;-0.62;100.00
64683;BME280;51107;47.652;19.016;2024-01-30T07:53:02;102259.31;;;-0.54;100.00
64683;BME280;51107;47.652;19.016;2024-01-30T07:55:59;102266.94;;;-0.49;100.00
64683;BME280;51107;47.652;19.016;2024-01-30T07:58:28;102257.56;;;-0.50;100.00
64683;BME280;51107;47.652;19.016;2024-01-30T08:00:57;102257.34;;;-0.32;100.00
64683;BME280;51107;47.652;19.016;2024-01-30T08:03:27;102254.78;;;-0.33;100.00
64683;BME280;51107;47.652;19.016;2024-01-30T08:05:55;102270.84;;;-0.19;100.00
64683;BME280;51107;47.652;19.016;2024-01-30T08:08:23;102268.88;;;0.02;100.00
64683;BME280;51107;47.652;19.016;2024-01-30T08:10:51;102262.44;;;0.33;100.00
64683;BME280;51107;47.652;19.016;2024-01-30T08:13:19;102267.37;;;0.46;100.00
64683;BME280;51107;47.652;19.016;2024-01-30T08:15:47;102264.81;;;0.46;100.00
64683;BME280;51107;47.652;19.016;2024-01-30T08:18:16;102269.00;;;0.52;100.00
64683;BME280;51107;47.652;19.016;2024-01-30T08:20:44;102275.03;;;0.47;99.06
64683;BME280;51107;47.652;19.016;2024-01-30T08:23:12;102268.38;;;0.36;99.42
64683;BME280;51107;47.652;19.016;2024-01-30T08:25:40;102281.59;;;0.65;100.00
64683;BME280;51107;47.652;19.016;2024-01-30T08:28:08;102264.25;;;0.80;98.55
64683;BME280;51107;47.652;19.016;2024-01-30T08:30:37;102269.78;;;1.07;96.07
64683;BME280;51107;47.652;19.016;2024-01-30T08:33:07;102282.25;;;0.77;95.75
64683;BME280;51107;47.652;19.016;2024-01-30T08:35:35;102287.09;;;0.95;97.26
64683;BME280;51107;47.652;19.016;2024-01-30T08:38:03;102277.53;;;1.50;96.25
64683;BME280;51107;47.652;19.016;2024-01-30T08:40:34;102271.41;;;1.56;93.45
64683;BME280;51107;47.652;19.016;2024-01-30T08:43:03;102277.19;;;1.67;92.89
64683;BME280;51107;47.652;19.016;2024-01-30T08:45:32;102281.53;;;2.04;91.28
64683;BME280;51107;47.652;19.016;2024-01-30T08:48:00;102277.28;;;2.03;91.82
64683;BME280;51107;47.652;19.016;2024-01-30T08:50:29;102278.25;;;2.37;89.12
64683;BME280;51107;47.652;19.016;2024-01-30T08:52:57;102268.50;;;2.50;88.45
64683;BME280;51107;47.652;19.016;2024-01-30T08:55:26;102272.75;;;2.87;86.62
64683;BME280;51107;47.652;19.016;2024-01-30T08:57:54;102273.44;;;2.59;85.71
64683;BME280;51107;47.652;19.016;2024-01-30T09:00:22;102272.44;;;2.99;86.49
64683;BME280;51107;47.652;19.016;2024-01-30T09:02:51;102270.19;;;3.51;83.00
64683;BME280;51107;47.652;19.016;2024-01-30T09:05:19;102268.06;;;3.34;82.80
64683;BME280;51107;47.652;19.016;2024-01-30T09:07:47;102272.03;;;3.46;84.29
64683;BME280;51107;47.652;19.016;2024-01-30T09:10:16;102276.53;;;3.69;82.82
64683;BME280;51107;47.652;19.016;2024-01-30T09:12:48;102267.97;;;3.06;83.49
64683;BME280;51107;47.652;19.016;2024-01-30T09:15:17;102273.41;;;3.88;82.36
64683;BME280;51107;47.652;19.016;2024-01-30T09:17:46;102265.56;;;3.93;80.95
64683;BME280;51107;47.652;19.016;2024-01-30T09:20:15;102270.19;;;4.10;82.32
64683;BME280;51107;47.652;19.016;2024-01-30T09:22:43;102268.41;;;4.40;82.14
64683;BME280;51107;47.652;19.016;2024-01-30T09:25:11;102276.63;;;4.51;81.45
64683;BME280;51107;47.652;19.016;2024-01-30T09:27:40;102273.66;;;4.64;79.71
64683;BME280;51107;47.652;19.016;2024-01-30T09:30:08;102267.06;;;4.55;77.66
64683;BME280;51107;47.652;19.016;2024-01-30T09:32:36;102267.34;;;4.46;79.04
64683;BME280;51107;47.652;19.016;2024-01-30T09:35:05;102274.00;;;4.53;80.59
64683;BME280;51107;47.652;19.016;2024-01-30T09:37:34;102264.37;;;4.83;76.80
64683;BME280;51107;47.652;19.016;2024-01-30T09:40:03;102268.06;;;4.51;77.91
64683;BME280;51107;47.652;19.016;2024-01-30T09:42:35;102270.84;;;4.16;78.75
64683;BME280;51107;47.652;19.016;2024-01-30T09:45:05;102267.37;;;3.89;79.85
64683;BME280;51107;47.652;19.016;2024-01-30T09:47:42;102269.72;;;3.97;81.22
64683;BME280;51107;47.652;19.016;2024-01-30T09:50:12;102270.97;;;4.40;81.63
64683;BME280;51107;47.652;19.016;2024-01-30T09:52:41;102268.84;;;4.80;80.28
64683;BME280;51107;47.652;19.016;2024-01-30T09:55:10;102267.03;;;5.56;76.92
64683;BME280;51107;47.652;19.016;2024-01-30T09:57:39;102261.97;;;5.53;75.33
64683;BME280;51107;47.652;19.016;2024-01-30T10:00:08;102270.19;;;5.40;76.06
64683;BME280;51107;47.652;19.016;2024-01-30T10:02:39;102259.59;;;5.47;75.57
64683;BME280;51107;47.652;19.016;2024-01-30T10:05:09;102268.88;;;6.00;73.73
64683;BME280;51107;47.652;19.016;2024-01-30T10:07:37;102266.19;;;5.55;75.83
64683;BME280;51107;47.652;19.016;2024-01-30T10:10:06;102254.81;;;5.83;73.69
64683;BME280;51107;47.652;19.016;2024-01-30T10:12:35;102256.00;;;5.74;74.25
64683;BME280;51107;47.652;19.016;2024-01-30T10:15:07;102256.97;;;5.72;74.85
64683;BME280;51107;47.652;19.016;2024-01-30T10:17:37;102261.84;;;5.56;74.57
64683;BME280;51107;47.652;19.016;2024-01-30T10:20:06;102250.31;;;5.65;73.53
64683;BME280;51107;47.652;19.016;2024-01-30T10:22:36;102251.88;;;5.92;73.94
64683;BME280;51107;47.652;19.016;2024-01-30T10:25:05;102250.84;;;5.97;71.52
64683;BME280;51107;47.652;19.016;2024-01-30T10:27:33;102247.84;;;5.14;75.17
64683;BME280;51107;47.652;19.016;2024-01-30T10:30:02;102252.06;;;4.66;76.81
64683;BME280;51107;47.652;19.016;2024-01-30T10:32:32;102246.25;;;4.59;77.61
64683;BME280;51107;47.652;19.016;2024-01-30T10:35:00;102245.47;;;4.57;79.21
64683;BME280;51107;47.652;19.016;2024-01-30T10:37:30;102240.16;;;4.87;78.21
64683;BME280;51107;47.652;19.016;2024-01-30T10:40:02;102240.84;;;4.67;79.15
64683;BME280;51107;47.652;19.016;2024-01-30T10:42:32;102234.81;;;4.67;79.36
64683;BME280;51107;47.652;19.016;2024-01-30T10:45:06;102232.63;;;4.56;80.00
64683;BME280;51107;47.652;19.016;2024-01-30T10:47:37;102224.25;;;4.21;81.94
64683;BME280;51107;47.652;19.016;2024-01-30T10:50:07;102218.75;;;4.84;80.58
64683;BME280;51107;47.652;19.016;2024-01-30T10:52:36;102215.88;;;5.17;79.14
64683;BME280;51107;47.652;19.016;2024-01-30T10:55:05;102215.31;;;4.83;79.02
64683;BME280;51107;47.652;19.016;2024-01-30T10:57:35;102203.84;;;5.16;79.49
64683;BME280;51107;47.652;19.016;2024-01-30T11:00:07;102206.16;;;4.49;79.12
64683;BME280;51107;47.652;19.016;2024-01-30T11:02:41;102205.34;;;4.47;80.32
64683;BME280;51107;47.652;19.016;2024-01-30T11:05:12;102195.59;;;5.06;79.58
64683;BME280;51107;47.652;19.016;2024-01-30T11:07:41;102192.34;;;5.24;78.09
64683;BME280;51107;47.652;19.016;2024-01-30T11:10:09;102188.63;;;5.55;78.19
64683;BME280;51107;47.652;19.016;2024-01-30T11:12:41;102188.69;;;5.30;77.43
64683;BME280;51107;47.652;19.016;2024-01-30T11:15:17;102189.91;;;5.43;76.26
64683;BME280;51107;47.652;19.016;2024-01-30T11:20:20;102181.22;;;5.46;78.18
64683;BME280;51107;47.652;19.016;2024-01-30T11:22:51;102185.22;;;5.07;76.04
64683;BME280;51107;47.652;19.016;2024-01-30T11:25:21;102181.94;;;5.02;78.17
64683;BME280;51107;47.652;19.016;2024-01-30T11:27:51;102184.31;;;5.32;77.87
64683;BME280;51107;47.652;19.016;2024-01-30T11:30:30;102183.13;;;5.41;77.84
64683;BME280;51107;47.652;19.016;2024-01-30T11:35:36;102175.28;;;5.42;76.89
64683;BME280;51107;47.652;19.016;2024-01-30T11:38:06;102171.47;;;5.53;74.97
64683;BME280;51107;47.652;19.016;2024-01-30T11:40:36;102169.50;;;5.36;76.06
64683;BME280;51107;47.652;19.016;2024-01-30T11:43:07;102160.28;;;5.52;75.23
64683;BME280;51107;47.652;19.016;2024-01-30T11:45:36;102164.59;;;5.06;74.86
64683;BME280;51107;47.652;19.016;2024-01-30T11:48:05;102163.47;;;4.89;76.84
64683;BME280;51107;47.652;19.016;2024-01-30T11:50:34;102159.50;;;5.04;76.64
64683;BME280;51107;47.652;19.016;2024-01-30T11:53:04;102163.59;;;4.86;76.81
64683;BME280;51107;47.652;19.016;2024-01-30T11:55:33;102154.47;;;5.00;77.42
64683;BME280;51107;47.652;19.016;2024-01-30T11:58:03;102151.50;;;4.87;76.55
64683;BME280;51107;47.652;19.016;2024-01-30T12:00:33;102151.78;;;4.54;77.00
64683;BME280;51107;47.652;19.016;2024-01-30T12:03:03;102149.59;;;4.67;77.14
64683;BME280;51107;47.652;19.016;2024-01-30T12:05:33;102149.03;;;4.84;76.34
64683;BME280;51107;47.652;19.016;2024-01-30T12:08:01;102137.09;;;4.56;77.38
64683;BME280;51107;47.652;19.016;2024-01-30T12:10:30;102143.13;;;4.80;76.54
64683;BME280;51107;47.652;19.016;2024-01-30T12:12:59;102126.72;;;4.57;77.80
64683;BME280;51107;47.652;19.016;2024-01-30T12:15:28;102115.31;;;4.38;78.32
64683;BME280;51107;47.652;19.016;2024-01-30T12:18:07;102117.87;;;4.39;78.50
64683;BME280;51107;47.652;19.016;2024-01-30T12:20:36;102115.38;;;4.36;79.25
64683;BME280;51107;47.652;19.016;2024-01-30T12:23:05;102113.53;;;4.40;77.19
64683;BME280;51107;47.652;19.016;2024-01-30T12:25:33;102117.16;;;4.59;76.06
64683;BME280;51107;47.652;19.016;2024-01-30T12:28:02;102110.50;;;4.78;75.48
64683;BME280;51107;47.652;19.016;2024-01-30T12:30:30;102118.53;;;4.70;74.96
64683;BME280;51107;47.652;19.016;2024-01-30T12:33:00;102104.87;;;4.66;74.02
64683;BME280;51107;47.652;19.016;2024-01-30T12:35:30;102103.75;;;4.73;73.23
64683;BME280;51107;47.652;19.016;2024-01-30T12:38:00;102106.06;;;4.81;72.92
64683;BME280;51107;47.652;19.016;2024-01-30T12:40:29;102113.88;;;4.80;73.75
64683;BME280;51107;47.652;19.016;2024-01-30T12:42:57;102105.78;;;4.65;73.30
64683;BME280;51107;47.652;19.016;2024-01-30T12:45:25;102102.75;;;4.54;73.54
64683;BME280;51107;47.652;19.016;2024-01-30T12:47:54;102090.72;;;4.53;73.01
64683;BME280;51107;47.652;19.016;2024-01-30T12:50:23;102095.56;;;4.62;73.11
64683;BME280;51107;47.652;19.016;2024-01-30T12:52:51;102099.22;;;4.56;71.74